createdAt,value
2016-11-13T00:00:01.717Z,0
2016-11-13T00:01:01.789Z,0
2016-11-13T00:02:01.435Z,0
2016-11-13T00:03:01.440Z,0
2016-11-13T00:04:01.145Z,0
2016-11-13T00:05:01.809Z,0
2016-11-13T00:06:01.167Z,0
2016-11-13T00:07:01.498Z,0
2016-11-13T00:08:01.507Z,0
2016-11-13T00:09:01.522Z,0
2016-11-13T00:10:01.241Z,0
2016-11-13T00:11:01.552Z,0
2016-11-13T00:12:01.247Z,0
2016-11-13T00:13:01.258Z,0
2016-11-13T00:14:01.925Z,0
2016-11-13T00:15:01.603Z,0
2016-11-13T00:16:01.302Z,0
2016-11-13T00:17:01.629Z,0
2016-11-13T00:18:01.642Z,0
2016-11-13T00:19:01.662Z,0
2016-11-13T00:20:01.986Z,0
2016-11-13T00:21:01.687Z,0
2016-11-13T00:22:01.693Z,0
2016-11-13T00:23:02.029Z,0
2016-11-13T00:24:01.723Z,0
2016-11-13T00:25:01.465Z,0
2016-11-13T00:26:01.431Z,0
2016-11-13T00:27:02.084Z,0
2016-11-13T00:28:01.789Z,0
2016-11-13T00:29:02.101Z,0
2016-11-13T00:30:02.154Z,0
2016-11-13T00:31:02.134Z,0
2016-11-13T00:32:02.150Z,0
2016-11-13T00:33:01.549Z,0
2016-11-13T00:34:01.893Z,0
2016-11-13T00:35:02.183Z,0
2016-11-13T00:36:01.880Z,0
2016-11-13T00:37:01.583Z,0
2016-11-13T00:38:01.910Z,0
2016-11-13T00:39:01.607Z,0
2016-11-13T00:40:01.941Z,0
2016-11-13T00:41:02.573Z,0
2016-11-13T00:42:01.641Z,0
2016-11-13T00:43:02.291Z,0
2016-11-13T00:44:01.985Z,0
2016-11-13T00:45:02.314Z,0
2016-11-13T00:46:02.034Z,0
2016-11-13T00:47:02.340Z,0
2016-11-13T00:48:02.038Z,0
2016-11-13T00:49:02.683Z,0
2016-11-13T00:50:02.382Z,0
2016-11-13T00:51:01.795Z,0
2016-11-13T00:52:02.720Z,0
2016-11-13T00:53:02.430Z,0
2016-11-13T00:54:02.126Z,0
2016-11-13T00:55:02.594Z,0
2016-11-13T00:56:01.828Z,0
2016-11-13T00:57:02.158Z,0
2016-11-13T00:58:02.494Z,0
2016-11-13T00:59:02.183Z,0
2016-11-13T01:00:02.199Z,0
2016-11-13T01:01:01.901Z,0
2016-11-13T01:02:02.225Z,0
2016-11-13T01:03:02.560Z,0
2016-11-13T01:04:02.577Z,0
2016-11-13T01:05:02.266Z,0
2016-11-13T01:06:02.301Z,0
2016-11-13T01:07:02.605Z,0
2016-11-13T01:08:02.313Z,0
2016-11-13T01:09:02.633Z,0
2016-11-13T01:10:02.325Z,0
2016-11-13T01:11:02.348Z,0
2016-11-13T01:12:02.355Z,0
2016-11-13T01:13:02.694Z,0
2016-11-13T01:14:02.385Z,0
2016-11-13T01:15:02.402Z,0
2016-11-13T01:16:02.095Z,0
2016-11-13T01:17:02.422Z,0
2016-11-13T01:18:02.778Z,0
2016-11-13T01:19:02.445Z,0
2016-11-13T01:20:02.777Z,0
2016-11-13T01:21:02.785Z,0
2016-11-13T01:22:02.488Z,0
2016-11-13T01:23:02.819Z,0
2016-11-13T01:24:02.198Z,0
2016-11-13T01:25:02.845Z,0
2016-11-13T01:26:02.537Z,0
2016-11-13T01:27:02.553Z,0
2016-11-13T01:28:02.598Z,0
2016-11-13T01:29:03.211Z,0
2016-11-13T01:30:02.277Z,0
2016-11-13T01:31:02.603Z,0
2016-11-13T01:32:02.973Z,0
2016-11-13T01:33:02.628Z,0
2016-11-13T01:34:02.645Z,0
2016-11-13T01:35:02.340Z,0
2016-11-13T01:36:02.755Z,0
2016-11-13T01:37:02.685Z,0
2016-11-13T01:38:02.381Z,0
2016-11-13T01:39:02.391Z,0
2016-11-13T01:40:03.035Z,0
2016-11-13T01:41:03.049Z,0
2016-11-13T01:42:02.744Z,0
2016-11-13T01:43:03.082Z,0
2016-11-13T01:44:03.433Z,0
2016-11-13T01:45:03.101Z,0
2016-11-13T01:46:02.798Z,0
2016-11-13T01:47:03.124Z,0
2016-11-13T01:48:03.149Z,0
2016-11-13T01:49:03.200Z,0
2016-11-13T01:50:02.855Z,0
2016-11-13T01:51:03.494Z,0
2016-11-13T01:52:03.205Z,0
2016-11-13T01:53:02.907Z,0
2016-11-13T01:54:03.254Z,0
2016-11-13T01:55:02.915Z,0
2016-11-13T01:56:02.934Z,0
2016-11-13T01:57:02.944Z,0
2016-11-13T01:58:02.962Z,0
2016-11-13T01:59:02.966Z,0
2016-11-13T02:00:02.668Z,0
2016-11-13T02:01:03.313Z,0
2016-11-13T02:02:03.007Z,0
2016-11-13T02:03:03.028Z,0
2016-11-13T02:04:03.038Z,0
2016-11-13T02:05:03.054Z,0
2016-11-13T02:06:03.062Z,0
2016-11-13T02:07:03.397Z,0
2016-11-13T02:08:03.131Z,0
2016-11-13T02:09:03.102Z,0
2016-11-13T02:10:03.113Z,0
2016-11-13T02:11:03.129Z,0
2016-11-13T02:12:03.456Z,0
2016-11-13T02:13:03.465Z,0
2016-11-13T02:14:02.849Z,0
2016-11-13T02:15:02.857Z,0
2016-11-13T02:16:03.188Z,0
2016-11-13T02:17:02.892Z,0
2016-11-13T02:18:03.216Z,0
2016-11-13T02:19:03.232Z,0
2016-11-13T02:20:03.884Z,0
2016-11-13T02:21:03.575Z,0
2016-11-13T02:22:03.582Z,0
2016-11-13T02:23:03.284Z,0
2016-11-13T02:24:03.291Z,0
2016-11-13T02:25:03.646Z,0
2016-11-13T02:26:03.634Z,0
2016-11-13T02:27:03.331Z,0
2016-11-13T02:28:03.348Z,0
2016-11-13T02:29:03.673Z,0
2016-11-13T02:30:03.402Z,0
2016-11-13T02:31:03.695Z,0
2016-11-13T02:32:03.713Z,0
2016-11-13T02:33:03.411Z,0
2016-11-13T02:34:03.425Z,0
2016-11-13T02:35:03.441Z,0
2016-11-13T02:36:03.447Z,0
2016-11-13T02:37:03.468Z,0
2016-11-13T02:38:03.493Z,0
2016-11-13T02:39:03.511Z,0
2016-11-13T02:40:03.516Z,0
2016-11-13T02:41:03.824Z,0
2016-11-13T02:42:03.228Z,0
2016-11-13T02:43:03.537Z,0
2016-11-13T02:44:03.555Z,0
2016-11-13T02:45:03.571Z,0
2016-11-13T02:46:03.579Z,0
2016-11-13T02:47:03.903Z,0
2016-11-13T02:48:03.288Z,0
2016-11-13T02:49:03.924Z,0
2016-11-13T02:50:03.339Z,0
2016-11-13T02:51:03.948Z,0
2016-11-13T02:52:03.655Z,0
2016-11-13T02:53:03.344Z,0
2016-11-13T02:54:03.367Z,0
2016-11-13T02:55:03.687Z,0
2016-11-13T02:56:03.717Z,0
2016-11-13T02:57:04.030Z,0
2016-11-13T02:58:03.415Z,0
2016-11-13T02:59:04.099Z,0
2016-11-13T03:00:04.068Z,0
2016-11-13T03:01:04.397Z,0
2016-11-13T03:02:03.802Z,0
2016-11-13T03:03:04.425Z,0
2016-11-13T03:04:04.117Z,0
2016-11-13T03:05:04.138Z,0
2016-11-13T03:06:03.833Z,0
2016-11-13T03:07:03.839Z,0
2016-11-13T03:08:03.863Z,0
2016-11-13T03:09:03.870Z,0
2016-11-13T03:10:04.196Z,0
2016-11-13T03:11:04.204Z,0
2016-11-13T03:12:04.536Z,0
2016-11-13T03:13:03.954Z,0
2016-11-13T03:14:04.251Z,0
2016-11-13T03:15:03.705Z,0
2016-11-13T03:16:03.987Z,0
2016-11-13T03:17:03.974Z,0
2016-11-13T03:18:03.982Z,0
2016-11-13T03:19:04.003Z,0
2016-11-13T03:20:04.013Z,0
2016-11-13T03:21:04.338Z,0
2016-11-13T03:22:04.041Z,0
2016-11-13T03:23:04.051Z,0
2016-11-13T03:24:04.060Z,0
2016-11-13T03:25:03.769Z,0
2016-11-13T03:26:04.097Z,0
2016-11-13T03:27:04.100Z,0
2016-11-13T03:28:03.801Z,0
2016-11-13T03:29:04.125Z,0
2016-11-13T03:30:04.783Z,0
2016-11-13T03:31:04.156Z,0
2016-11-13T03:32:04.482Z,0
2016-11-13T03:33:04.179Z,0
2016-11-13T03:34:04.209Z,0
2016-11-13T03:35:03.893Z,0
2016-11-13T03:36:04.856Z,0
2016-11-13T03:37:04.232Z,0
2016-11-13T03:38:04.557Z,0
2016-11-13T03:39:03.939Z,0
2016-11-13T03:40:03.984Z,0
2016-11-13T03:41:04.633Z,0
2016-11-13T03:42:04.297Z,0
2016-11-13T03:43:04.310Z,0
2016-11-13T03:44:04.331Z,0
2016-11-13T03:45:04.340Z,0
2016-11-13T03:46:04.660Z,0
2016-11-13T03:47:04.673Z,0
2016-11-13T03:48:04.691Z,0
2016-11-13T03:49:04.704Z,0
2016-11-13T03:50:04.402Z,0
2016-11-13T03:51:04.727Z,0
2016-11-13T03:52:04.110Z,0
2016-11-13T03:53:04.434Z,0
2016-11-13T03:54:04.143Z,0
2016-11-13T03:55:05.094Z,0
2016-11-13T03:56:04.174Z,0
2016-11-13T03:57:04.488Z,0
2016-11-13T03:58:04.877Z,0
2016-11-13T03:59:04.214Z,0
2016-11-13T04:00:04.844Z,0
2016-11-13T04:01:04.538Z,0
2016-11-13T04:02:04.872Z,0
2016-11-13T04:03:04.880Z,0
2016-11-13T04:04:04.894Z,0
2016-11-13T04:05:04.963Z,0
2016-11-13T04:06:04.290Z,0
2016-11-13T04:07:05.278Z,0
2016-11-13T04:08:04.946Z,0
2016-11-13T04:09:04.641Z,0
2016-11-13T04:10:04.696Z,0
2016-11-13T04:11:04.990Z,0
2016-11-13T04:12:04.738Z,0
2016-11-13T04:13:04.692Z,0
2016-11-13T04:14:04.707Z,0
2016-11-13T04:15:05.035Z,0
2016-11-13T04:16:05.049Z,0
2016-11-13T04:17:05.374Z,0
2016-11-13T04:18:05.072Z,0
2016-11-13T04:19:04.450Z,0
2016-11-13T04:20:04.476Z,0
2016-11-13T04:21:05.106Z,0
2016-11-13T04:22:05.130Z,0
2016-11-13T04:23:04.818Z,0
2016-11-13T04:24:04.526Z,0
2016-11-13T04:25:04.533Z,0
2016-11-13T04:26:04.540Z,0
2016-11-13T04:27:04.549Z,0
2016-11-13T04:28:04.599Z,0
2016-11-13T04:29:05.027Z,0
2016-11-13T04:30:04.599Z,0
2016-11-13T04:31:04.938Z,0
2016-11-13T04:32:05.242Z,0
2016-11-13T04:33:04.946Z,0
2016-11-13T04:34:05.278Z,0
2016-11-13T04:35:04.981Z,0
2016-11-13T04:36:05.617Z,0
2016-11-13T04:37:04.675Z,0
2016-11-13T04:38:05.008Z,0
2016-11-13T04:39:05.331Z,0
2016-11-13T04:40:05.037Z,0
2016-11-13T04:41:05.058Z,0
2016-11-13T04:42:05.069Z,0
2016-11-13T04:43:04.764Z,0
2016-11-13T04:44:05.118Z,0
2016-11-13T04:45:05.136Z,0
2016-11-13T04:46:05.424Z,0
2016-11-13T04:47:05.119Z,0
2016-11-13T04:48:05.779Z,0
2016-11-13T04:49:05.140Z,0
2016-11-13T04:50:04.852Z,0
2016-11-13T04:51:05.171Z,0
2016-11-13T04:52:05.181Z,0
2016-11-13T04:53:05.510Z,0
2016-11-13T04:54:04.900Z,0
2016-11-13T04:55:05.226Z,0
2016-11-13T04:56:05.233Z,0
2016-11-13T04:57:05.241Z,0
2016-11-13T04:58:05.261Z,0
2016-11-13T04:59:05.279Z,0
2016-11-13T05:00:05.291Z,0
2016-11-13T05:01:04.974Z,0
2016-11-13T05:02:05.302Z,0
2016-11-13T05:03:05.634Z,0
2016-11-13T05:04:05.331Z,0
2016-11-13T05:05:05.112Z,0
2016-11-13T05:06:05.673Z,0
2016-11-13T05:07:05.366Z,0
2016-11-13T05:08:05.703Z,0
2016-11-13T05:09:05.393Z,0
2016-11-13T05:10:05.454Z,0
2016-11-13T05:11:05.421Z,0
2016-11-13T05:12:05.115Z,0
2016-11-13T05:13:05.755Z,0
2016-11-13T05:14:05.793Z,0
2016-11-13T05:15:05.460Z,0
2016-11-13T05:16:05.795Z,0
2016-11-13T05:17:05.486Z,0
2016-11-13T05:18:05.501Z,0
2016-11-13T05:19:05.825Z,0
2016-11-13T05:20:05.258Z,0
2016-11-13T05:21:05.856Z,0
2016-11-13T05:22:06.185Z,0
2016-11-13T05:23:05.554Z,0
2016-11-13T05:24:05.273Z,0
2016-11-13T05:25:05.609Z,0
2016-11-13T05:26:05.707Z,0
2016-11-13T05:27:05.924Z,0
2016-11-13T05:28:05.634Z,0
2016-11-13T05:29:05.990Z,0
2016-11-13T05:30:05.652Z,0
2016-11-13T05:31:05.662Z,0
2016-11-13T05:32:05.989Z,0
2016-11-13T05:33:06.319Z,0
2016-11-13T05:34:06.006Z,0
2016-11-13T05:35:06.054Z,0
2016-11-13T05:36:05.718Z,0
2016-11-13T05:37:06.040Z,0
2016-11-13T05:38:05.754Z,0
2016-11-13T05:39:05.762Z,0
2016-11-13T05:40:06.096Z,0
2016-11-13T05:41:06.096Z,0
2016-11-13T05:42:06.415Z,0
2016-11-13T05:43:05.480Z,0
2016-11-13T05:44:06.124Z,0
2016-11-13T05:45:05.837Z,0
2016-11-13T05:46:06.157Z,0
2016-11-13T05:47:06.163Z,0
2016-11-13T05:48:06.174Z,0
2016-11-13T05:49:05.555Z,0
2016-11-13T05:50:05.591Z,0
2016-11-13T05:51:06.208Z,0
2016-11-13T05:52:06.226Z,0
2016-11-13T05:53:06.233Z,0
2016-11-13T05:54:06.253Z,0
2016-11-13T05:55:06.585Z,0
2016-11-13T05:56:05.962Z,0
2016-11-13T05:57:05.654Z,0
2016-11-13T05:58:06.300Z,0
2016-11-13T05:59:06.297Z,0
2016-11-13T06:00:06.016Z,4
2016-11-13T06:01:06.007Z,0
2016-11-13T06:02:06.034Z,0
2016-11-13T06:03:06.029Z,0
2016-11-13T06:04:06.047Z,4
2016-11-13T06:05:05.793Z,0
2016-11-13T06:06:06.385Z,0
2016-11-13T06:07:06.408Z,4
2016-11-13T06:08:06.414Z,4
2016-11-13T06:09:06.421Z,0
2016-11-13T06:10:05.819Z,4
2016-11-13T06:11:06.147Z,4
2016-11-13T06:12:06.140Z,4
2016-11-13T06:13:06.150Z,4
2016-11-13T06:14:06.171Z,4
2016-11-13T06:15:06.850Z,8
2016-11-13T06:16:06.833Z,8
2016-11-13T06:17:06.515Z,4
2016-11-13T06:18:06.213Z,8
2016-11-13T06:19:06.862Z,8
2016-11-13T06:20:06.248Z,8
2016-11-13T06:21:06.581Z,8
2016-11-13T06:22:06.590Z,12
2016-11-13T06:23:06.270Z,8
2016-11-13T06:24:06.294Z,8
2016-11-13T06:25:05.989Z,8
2016-11-13T06:26:06.953Z,12
2016-11-13T06:27:06.014Z,12
2016-11-13T06:28:06.023Z,12
2016-11-13T06:29:06.662Z,12
2016-11-13T06:30:06.369Z,12
2016-11-13T06:31:06.067Z,16
2016-11-13T06:32:06.391Z,16
2016-11-13T06:33:06.411Z,16
2016-11-13T06:34:06.093Z,24
2016-11-13T06:35:06.756Z,24
2016-11-13T06:36:06.441Z,24
2016-11-13T06:37:06.444Z,28
2016-11-13T06:38:06.140Z,32
2016-11-13T06:39:07.128Z,32
2016-11-13T06:40:06.484Z,36
2016-11-13T06:41:06.492Z,40
2016-11-13T06:42:06.515Z,48
2016-11-13T06:43:06.519Z,48
2016-11-13T06:44:06.532Z,48
2016-11-13T06:45:06.270Z,44
2016-11-13T06:46:06.558Z,44
2016-11-13T06:47:06.889Z,52
2016-11-13T06:48:06.896Z,60
2016-11-13T06:49:06.592Z,64
2016-11-13T06:50:06.625Z,60
2016-11-13T06:51:06.935Z,60
2016-11-13T06:52:06.644Z,56
2016-11-13T06:53:06.649Z,56
2016-11-13T06:54:06.658Z,56
2016-11-13T06:55:06.672Z,60
2016-11-13T06:56:06.683Z,60
2016-11-13T06:57:06.697Z,60
2016-11-13T06:58:07.032Z,60
2016-11-13T06:59:07.033Z,60
2016-11-13T07:00:06.730Z,60
2016-11-13T07:01:07.072Z,60
2016-11-13T07:02:07.074Z,56
2016-11-13T07:03:06.453Z,60
2016-11-13T07:04:06.790Z,68
2016-11-13T07:05:07.116Z,68
2016-11-13T07:06:06.510Z,64
2016-11-13T07:07:06.816Z,60
2016-11-13T07:08:07.151Z,60
2016-11-13T07:09:06.843Z,64
2016-11-13T07:10:07.173Z,68
2016-11-13T07:11:06.869Z,68
2016-11-13T07:12:06.889Z,72
2016-11-13T07:13:06.577Z,72
2016-11-13T07:14:07.229Z,76
2016-11-13T07:15:07.234Z,84
2016-11-13T07:16:06.932Z,92
2016-11-13T07:17:06.947Z,96
2016-11-13T07:18:07.315Z,92
2016-11-13T07:19:06.970Z,88
2016-11-13T07:20:07.325Z,88
2016-11-13T07:21:07.040Z,88
2016-11-13T07:22:07.006Z,96
2016-11-13T07:23:07.455Z,104
2016-11-13T07:24:07.031Z,100
2016-11-13T07:25:07.687Z,92
2016-11-13T07:26:07.378Z,88
2016-11-13T07:27:07.395Z,88
2016-11-13T07:28:06.801Z,84
2016-11-13T07:29:07.727Z,88
2016-11-13T07:30:07.110Z,96
2016-11-13T07:31:07.123Z,92
2016-11-13T07:32:07.152Z,88
2016-11-13T07:33:07.154Z,92
2016-11-13T07:34:07.159Z,92
2016-11-13T07:35:07.501Z,100
2016-11-13T07:36:07.194Z,96
2016-11-13T07:37:07.523Z,100
2016-11-13T07:38:07.210Z,112
2016-11-13T07:39:07.221Z,108
2016-11-13T07:40:07.244Z,108
2016-11-13T07:41:07.245Z,104
2016-11-13T07:42:06.942Z,96
2016-11-13T07:43:07.269Z,92
2016-11-13T07:44:07.605Z,92
2016-11-13T07:45:06.981Z,92
2016-11-13T07:46:07.000Z,96
2016-11-13T07:47:07.637Z,92
2016-11-13T07:48:07.654Z,88
2016-11-13T07:49:07.348Z,92
2016-11-13T07:50:07.758Z,88
2016-11-13T07:51:07.058Z,96
2016-11-13T07:52:07.765Z,108
2016-11-13T07:53:07.437Z,124
2016-11-13T07:54:07.429Z,140
2016-11-13T07:55:07.117Z,156
2016-11-13T07:56:07.757Z,164
2016-11-13T07:57:07.448Z,164
2016-11-13T07:58:07.780Z,168
2016-11-13T07:59:07.473Z,172
2016-11-13T08:00:07.177Z,188
2016-11-13T08:01:07.816Z,204
2016-11-13T08:02:08.144Z,220
2016-11-13T08:03:07.837Z,228
2016-11-13T08:04:07.537Z,196
2016-11-13T08:05:07.614Z,180
2016-11-13T08:06:07.895Z,180
2016-11-13T08:07:07.598Z,168
2016-11-13T08:08:07.910Z,152
2016-11-13T08:09:07.600Z,148
2016-11-13T08:10:07.956Z,160
2016-11-13T08:11:07.311Z,152
2016-11-13T08:12:07.327Z,144
2016-11-13T08:13:07.341Z,140
2016-11-13T08:14:07.670Z,148
2016-11-13T08:15:08.050Z,160
2016-11-13T08:16:07.700Z,172
2016-11-13T08:17:08.339Z,192
2016-11-13T08:18:07.402Z,196
2016-11-13T08:19:07.739Z,192
2016-11-13T08:20:08.084Z,200
2016-11-13T08:21:07.442Z,216
2016-11-13T08:22:08.092Z,224
2016-11-13T08:23:08.096Z,224
2016-11-13T08:24:07.479Z,224
2016-11-13T08:25:08.126Z,208
2016-11-13T08:26:08.246Z,196
2016-11-13T08:27:07.836Z,180
2016-11-13T08:28:08.160Z,172
2016-11-13T08:29:07.857Z,168
2016-11-13T08:30:07.943Z,168
2016-11-13T08:31:08.205Z,172
2016-11-13T08:32:07.898Z,168
2016-11-13T08:33:08.554Z,148
2016-11-13T08:34:08.245Z,144
2016-11-13T08:35:08.328Z,140
2016-11-13T08:36:07.948Z,132
2016-11-13T08:37:07.965Z,136
2016-11-13T08:38:08.292Z,152
2016-11-13T08:39:08.304Z,164
2016-11-13T08:40:08.546Z,168
2016-11-13T08:41:08.330Z,176
2016-11-13T08:42:08.346Z,172
2016-11-13T08:43:08.359Z,160
2016-11-13T08:44:08.370Z,164
2016-11-13T08:45:08.699Z,172
2016-11-13T08:46:08.401Z,188
2016-11-13T08:47:08.090Z,168
2016-11-13T08:48:08.422Z,168
2016-11-13T08:49:08.123Z,200
2016-11-13T08:50:08.794Z,208
2016-11-13T08:51:08.152Z,196
2016-11-13T08:52:08.172Z,208
2016-11-13T08:53:08.180Z,228
2016-11-13T08:54:08.500Z,220
2016-11-13T08:55:08.225Z,192
2016-11-13T08:56:08.212Z,180
2016-11-13T08:57:08.542Z,172
2016-11-13T08:58:08.547Z,168
2016-11-13T08:59:07.938Z,164
2016-11-13T09:00:07.959Z,164
2016-11-13T09:01:08.908Z,168
2016-11-13T09:02:08.931Z,160
2016-11-13T09:03:08.307Z,160
2016-11-13T09:04:08.001Z,152
2016-11-13T09:05:08.372Z,156
2016-11-13T09:06:08.365Z,144
2016-11-13T09:07:08.370Z,136
2016-11-13T09:08:08.383Z,148
2016-11-13T09:09:08.384Z,168
2016-11-13T09:10:08.414Z,180
2016-11-13T09:11:08.422Z,184
2016-11-13T09:12:08.107Z,200
2016-11-13T09:13:08.474Z,196
2016-11-13T09:14:08.464Z,208
2016-11-13T09:15:08.155Z,232
2016-11-13T09:16:08.793Z,236
2016-11-13T09:17:08.490Z,204
2016-11-13T09:18:08.820Z,176
2016-11-13T09:19:08.201Z,180
2016-11-13T09:20:08.894Z,200
2016-11-13T09:21:08.222Z,236
2016-11-13T09:22:08.558Z,244
2016-11-13T09:23:08.251Z,220
2016-11-13T09:24:09.212Z,200
2016-11-13T09:25:08.625Z,192
2016-11-13T09:26:08.329Z,216
2016-11-13T09:27:08.620Z,220
2016-11-13T09:28:08.658Z,212
2016-11-13T09:29:08.646Z,248
2016-11-13T09:30:08.669Z,268
2016-11-13T09:31:08.670Z,304
2016-11-13T09:32:08.372Z,320
2016-11-13T09:33:08.693Z,348
2016-11-13T09:34:09.026Z,360
2016-11-13T09:35:08.723Z,280
2016-11-13T09:36:08.416Z,252
2016-11-13T09:37:08.439Z,248
2016-11-13T09:38:09.088Z,228
2016-11-13T09:39:09.408Z,212
2016-11-13T09:40:09.337Z,192
2016-11-13T09:41:09.119Z,196
2016-11-13T09:42:08.525Z,196
2016-11-13T09:43:08.846Z,176
2016-11-13T09:44:09.476Z,172
2016-11-13T09:45:09.517Z,176
2016-11-13T09:46:09.503Z,180
2016-11-13T09:47:08.566Z,172
2016-11-13T09:48:09.531Z,192
2016-11-13T09:49:08.908Z,232
2016-11-13T09:50:09.237Z,260
2016-11-13T09:51:08.935Z,252
2016-11-13T09:52:08.633Z,236
2016-11-13T09:53:08.966Z,216
2016-11-13T09:54:09.608Z,204
2016-11-13T09:55:09.627Z,196
2016-11-13T09:56:09.637Z,208
2016-11-13T09:57:08.700Z,232
2016-11-13T09:58:09.029Z,264
2016-11-13T09:59:09.667Z,256
2016-11-13T10:00:09.374Z,232
2016-11-13T10:01:09.072Z,224
2016-11-13T10:02:08.766Z,232
2016-11-13T10:03:09.096Z,228
2016-11-13T10:04:09.454Z,228
2016-11-13T10:05:09.149Z,220
2016-11-13T10:06:09.132Z,216
2016-11-13T10:07:08.849Z,228
2016-11-13T10:08:09.478Z,264
2016-11-13T10:09:09.489Z,304
2016-11-13T10:10:09.203Z,340
2016-11-13T10:11:09.204Z,364
2016-11-13T10:12:09.209Z,364
2016-11-13T10:13:09.542Z,324
2016-11-13T10:14:09.571Z,292
2016-11-13T10:15:09.567Z,256
2016-11-13T10:16:09.278Z,228
2016-11-13T10:17:09.293Z,220
2016-11-13T10:18:08.993Z,216
2016-11-13T10:19:09.003Z,208
2016-11-13T10:20:09.670Z,220
2016-11-13T10:21:09.647Z,244
2016-11-13T10:22:09.675Z,252
2016-11-13T10:23:09.363Z,256
2016-11-13T10:24:09.375Z,260
2016-11-13T10:25:09.405Z,260
2016-11-13T10:26:09.401Z,244
2016-11-13T10:27:09.419Z,228
2016-11-13T10:28:09.429Z,212
2016-11-13T10:29:09.124Z,208
2016-11-13T10:30:09.455Z,216
2016-11-13T10:31:09.470Z,236
2016-11-13T10:32:09.483Z,248
2016-11-13T10:33:09.494Z,260
2016-11-13T10:34:09.199Z,244
2016-11-13T10:35:09.894Z,248
2016-11-13T10:36:09.537Z,252
2016-11-13T10:37:09.865Z,240
2016-11-13T10:38:09.569Z,232
2016-11-13T10:39:09.580Z,228
2016-11-13T10:40:09.662Z,236
2016-11-13T10:41:09.924Z,248
2016-11-13T10:42:10.252Z,256
2016-11-13T10:43:09.325Z,256
2016-11-13T10:44:10.280Z,248
2016-11-13T10:45:09.689Z,236
2016-11-13T10:46:10.315Z,232
2016-11-13T10:47:09.697Z,232
2016-11-13T10:48:10.022Z,224
2016-11-13T10:49:09.716Z,208
2016-11-13T10:50:09.789Z,204
2016-11-13T10:51:09.742Z,200
2016-11-13T10:52:09.757Z,196
2016-11-13T10:53:09.774Z,192
2016-11-13T10:54:09.787Z,188
2016-11-13T10:55:09.810Z,188
2016-11-13T10:56:10.131Z,192
2016-11-13T10:57:10.143Z,200
2016-11-13T10:58:09.841Z,208
2016-11-13T10:59:09.856Z,212
2016-11-13T11:00:09.911Z,212
2016-11-13T11:01:10.205Z,216
2016-11-13T11:02:09.895Z,216
2016-11-13T11:03:10.231Z,220
2016-11-13T11:04:10.580Z,220
2016-11-13T11:05:10.264Z,224
2016-11-13T11:06:10.287Z,248
2016-11-13T11:07:09.975Z,288
2016-11-13T11:08:09.980Z,308
2016-11-13T11:09:09.698Z,328
2016-11-13T11:10:10.336Z,340
2016-11-13T11:11:10.025Z,348
2016-11-13T11:12:09.735Z,352
2016-11-13T11:13:10.049Z,344
2016-11-13T11:14:10.104Z,344
2016-11-13T11:15:10.132Z,332
2016-11-13T11:16:10.728Z,312
2016-11-13T11:17:10.116Z,300
2016-11-13T11:18:10.118Z,284
2016-11-13T11:19:10.140Z,276
2016-11-13T11:20:10.709Z,264
2016-11-13T11:21:10.164Z,268
2016-11-13T11:22:10.176Z,248
2016-11-13T11:23:10.202Z,236
2016-11-13T11:24:10.209Z,216
2016-11-13T11:25:10.225Z,200
2016-11-13T11:26:10.552Z,184
2016-11-13T11:27:10.566Z,176
2016-11-13T11:28:10.580Z,172
2016-11-13T11:29:10.593Z,172
2016-11-13T11:30:10.611Z,172
2016-11-13T11:31:10.307Z,172
2016-11-13T11:32:10.319Z,168
2016-11-13T11:33:10.333Z,160
2016-11-13T11:34:10.988Z,148
2016-11-13T11:35:10.734Z,144
2016-11-13T11:36:11.010Z,144
2016-11-13T11:37:10.390Z,148
2016-11-13T11:38:10.751Z,148
2016-11-13T11:39:10.427Z,144
2016-11-13T11:40:10.762Z,136
2016-11-13T11:41:10.767Z,128
2016-11-13T11:42:10.155Z,128
2016-11-13T11:43:10.794Z,136
2016-11-13T11:44:10.807Z,136
2016-11-13T11:45:10.862Z,148
2016-11-13T11:46:10.521Z,152
2016-11-13T11:47:10.849Z,164
2016-11-13T11:48:10.253Z,180
2016-11-13T11:49:10.874Z,176
2016-11-13T11:50:10.938Z,168
2016-11-13T11:51:10.905Z,156
2016-11-13T11:52:10.925Z,148
2016-11-13T11:53:10.624Z,148
2016-11-13T11:54:10.948Z,160
2016-11-13T11:55:10.679Z,184
2016-11-13T11:56:10.658Z,208
2016-11-13T11:57:10.674Z,220
2016-11-13T11:58:10.687Z,224
2016-11-13T11:59:10.387Z,212
2016-11-13T12:00:10.769Z,196
2016-11-13T12:01:10.417Z,188
2016-11-13T12:02:10.752Z,180
2016-11-13T12:03:11.541Z,176
2016-11-13T12:04:12.478Z,172
2016-11-13T12:05:11.947Z,172
2016-11-13T12:06:13.134Z,176
2016-11-13T12:07:12.817Z,184
2016-11-13T12:08:27.293Z,200
2016-11-13T12:10:11.595Z,248
2016-11-13T12:11:13.497Z,220
2016-11-13T12:12:13.406Z,216
2016-11-13T12:13:12.413Z,220
2016-11-13T12:14:10.969Z,232
2016-11-13T12:15:11.242Z,248
2016-11-13T12:16:11.258Z,272
2016-11-13T12:17:11.270Z,296
2016-11-13T12:18:10.977Z,336
2016-11-13T12:19:10.995Z,376
2016-11-13T12:20:10.695Z,452
2016-11-13T12:21:11.650Z,532
2016-11-13T12:22:11.045Z,440
2016-11-13T12:23:11.042Z,412
2016-11-13T12:24:11.150Z,408
2016-11-13T12:25:11.077Z,396
2016-11-13T12:26:11.404Z,404
2016-11-13T12:27:11.634Z,420
2016-11-13T12:28:11.485Z,440
2016-11-13T12:29:10.848Z,460
2016-11-13T12:30:11.147Z,496
2016-11-13T12:31:11.171Z,484
2016-11-13T12:32:10.853Z,464
2016-11-13T12:33:11.191Z,456
2016-11-13T12:34:11.206Z,420
2016-11-13T12:35:11.223Z,472
2016-11-13T12:36:11.257Z,400
2016-11-13T12:37:11.883Z,376
2016-11-13T12:38:11.598Z,372
2016-11-13T12:39:11.592Z,364
2016-11-13T12:40:11.635Z,376
2016-11-13T12:41:11.304Z,416
2016-11-13T12:42:11.345Z,420
2016-11-13T12:43:11.652Z,456
2016-11-13T12:44:11.347Z,504
2016-11-13T12:45:11.366Z,500
2016-11-13T12:46:11.694Z,540
2016-11-13T12:47:11.703Z,544
2016-11-13T12:48:11.718Z,552
2016-11-13T12:49:11.413Z,544
2016-11-13T12:50:11.750Z,524
2016-11-13T12:51:11.138Z,532
2016-11-13T12:52:11.153Z,520
2016-11-13T12:53:11.181Z,488
2016-11-13T12:54:11.803Z,464
2016-11-13T12:55:11.507Z,480
2016-11-13T12:56:11.528Z,436
2016-11-13T12:57:11.562Z,408
2016-11-13T12:58:11.886Z,392
2016-11-13T12:59:11.568Z,384
2016-11-13T13:00:11.607Z,388
2016-11-13T13:01:11.278Z,396
2016-11-13T13:02:11.927Z,408
2016-11-13T13:03:11.620Z,404
2016-11-13T13:04:11.962Z,408
2016-11-13T13:05:11.691Z,396
2016-11-13T13:06:11.680Z,372
2016-11-13T13:07:12.002Z,348
2016-11-13T13:08:12.030Z,336
2016-11-13T13:09:11.713Z,328
2016-11-13T13:10:11.750Z,324
2016-11-13T13:11:11.745Z,324
2016-11-13T13:12:12.433Z,328
2016-11-13T13:13:12.084Z,308
2016-11-13T13:14:12.414Z,288
2016-11-13T13:15:11.802Z,272
2016-11-13T13:16:11.820Z,260
2016-11-13T13:17:11.516Z,236
2016-11-13T13:18:11.864Z,216
2016-11-13T13:19:11.865Z,204
2016-11-13T13:20:11.569Z,196
2016-11-13T13:21:12.212Z,180
2016-11-13T13:22:11.912Z,168
2016-11-13T13:23:11.918Z,156
2016-11-13T13:24:11.951Z,152
2016-11-13T13:25:12.293Z,148
2016-11-13T13:26:12.317Z,152
2016-11-13T13:27:11.686Z,152
2016-11-13T13:28:12.018Z,160
2016-11-13T13:29:12.699Z,156
2016-11-13T13:30:12.348Z,152
2016-11-13T13:31:11.725Z,148
2016-11-13T13:32:12.054Z,144
2016-11-13T13:33:12.072Z,140
2016-11-13T13:34:12.720Z,136
2016-11-13T13:35:12.115Z,128
2016-11-13T13:36:12.434Z,120
2016-11-13T13:37:12.457Z,120
2016-11-13T13:38:12.152Z,124
2016-11-13T13:39:11.843Z,116
2016-11-13T13:40:12.246Z,120
2016-11-13T13:41:12.849Z,108
2016-11-13T13:42:12.551Z,112
2016-11-13T13:43:12.537Z,116
2016-11-13T13:44:12.871Z,124
2016-11-13T13:45:12.288Z,128
2016-11-13T13:46:12.263Z,136
2016-11-13T13:47:12.286Z,144
2016-11-13T13:48:12.623Z,136
2016-11-13T13:49:12.311Z,132
2016-11-13T13:50:12.362Z,124
2016-11-13T13:51:12.343Z,108
2016-11-13T13:52:12.362Z,100
2016-11-13T13:53:13.000Z,88
2016-11-13T13:54:12.705Z,88
2016-11-13T13:55:12.398Z,88
2016-11-13T13:56:12.435Z,84
2016-11-13T13:57:12.760Z,88
2016-11-13T13:58:12.506Z,88
2016-11-13T13:59:12.804Z,92
2016-11-13T14:00:12.796Z,96
2016-11-13T14:01:12.816Z,96
2016-11-13T14:02:12.505Z,92
2016-11-13T14:03:12.536Z,92
2016-11-13T14:04:12.563Z,96
2016-11-13T14:05:12.878Z,104
2016-11-13T14:06:12.260Z,112
2016-11-13T14:07:12.262Z,116
2016-11-13T14:08:12.914Z,128
2016-11-13T14:09:13.252Z,140
2016-11-13T14:10:12.962Z,152
2016-11-13T14:11:12.353Z,164
2016-11-13T14:12:12.968Z,172
2016-11-13T14:13:13.086Z,172
2016-11-13T14:14:12.682Z,172
2016-11-13T14:15:12.703Z,172
2016-11-13T14:16:12.434Z,172